createdAt,value
2018-04-11T00:00:12.393Z,5.90
2018-04-11T00:02:40.543Z,5.90
2018-04-11T00:05:08.684Z,5.90
2018-04-11T00:07:36.839Z,5.90
2018-04-11T00:10:04.975Z,5.90
2018-04-11T00:12:33.125Z,5.90
2018-04-11T00:15:01.255Z,5.90
2018-04-11T00:17:29.407Z,5.90
2018-04-11T00:19:57.531Z,5.80
2018-04-11T00:22:25.683Z,5.80
2018-04-11T00:24:53.811Z,5.80
2018-04-11T00:27:21.967Z,5.80
2018-04-11T00:29:50.095Z,5.70
2018-04-11T00:32:18.244Z,5.70
2018-04-11T00:34:46.372Z,5.70
2018-04-11T00:37:14.524Z,5.70
2018-04-11T00:39:42.660Z,5.60
2018-04-11T00:42:10.823Z,5.60
2018-04-11T00:44:39.444Z,5.60
2018-04-11T00:47:07.595Z,5.60
2018-04-11T00:49:35.726Z,5.60
2018-04-11T00:52:03.877Z,5.50
2018-04-11T00:54:32.001Z,5.50
2018-04-11T00:57:00.160Z,5.50
2018-04-11T00:59:28.288Z,5.50
2018-04-11T01:01:57.177Z,5.50
2018-04-11T01:04:25.398Z,5.50
2018-04-11T01:06:54.252Z,5.50
2018-04-11T01:09:22.404Z,5.40
2018-04-11T01:11:50.528Z,5.40
2018-04-11T01:14:18.679Z,5.40
2018-04-11T01:16:46.814Z,5.40
2018-04-11T01:19:14.967Z,5.40
2018-04-11T01:21:43.092Z,5.40
2018-04-11T01:24:12.011Z,5.40
2018-04-11T01:26:40.140Z,5.40
2018-04-11T01:29:09.064Z,5.40
2018-04-11T01:31:37.191Z,5.40
2018-04-11T01:34:05.344Z,5.40
2018-04-11T01:36:33.480Z,5.40
2018-04-11T01:39:01.651Z,5.50
2018-04-11T01:41:29.780Z,5.50
2018-04-11T01:43:57.931Z,5.50
2018-04-11T01:46:26.068Z,5.50
2018-04-11T01:48:54.245Z,5.50
2018-04-11T01:51:22.578Z,5.50
2018-04-11T01:53:50.732Z,5.50
2018-04-11T01:56:18.876Z,5.50
2018-04-11T01:58:47.028Z,5.50
2018-04-11T02:01:15.164Z,5.50
2018-04-11T02:03:43.327Z,5.50
2018-04-11T02:06:11.468Z,5.50
2018-04-11T02:08:39.619Z,5.50
2018-04-11T02:11:07.752Z,5.60
2018-04-11T02:16:10.189Z,5.60
2018-04-11T02:18:38.345Z,5.60
2018-04-11T02:21:06.468Z,5.60
2018-04-11T02:23:34.624Z,5.60
2018-04-11T02:26:03.484Z,5.60
2018-04-11T02:28:31.641Z,5.60
2018-04-11T02:30:59.768Z,5.60
2018-04-11T02:33:27.954Z,5.60
2018-04-11T02:35:56.079Z,5.60
2018-04-11T02:38:24.238Z,5.60
2018-04-11T02:40:52.363Z,5.60
2018-04-11T02:43:20.516Z,5.60
2018-04-11T02:45:48.657Z,5.60
2018-04-11T02:48:16.808Z,5.60
2018-04-11T02:50:44.938Z,5.60
2018-04-11T02:53:13.085Z,5.60
2018-04-11T02:55:41.984Z,5.60
2018-04-11T02:58:10.149Z,5.60
2018-04-11T03:00:39.046Z,5.60
2018-04-11T03:03:07.217Z,5.60
2018-04-11T03:05:35.364Z,5.60
2018-04-11T03:08:03.494Z,5.60
2018-04-11T03:10:31.643Z,5.60
2018-04-11T03:12:59.775Z,5.60
2018-04-11T03:15:27.936Z,5.60
2018-04-11T03:17:56.077Z,5.60
2018-04-11T03:20:24.239Z,5.60
2018-04-11T03:22:52.384Z,5.60
2018-04-11T03:25:21.301Z,5.60
2018-04-11T03:27:49.433Z,5.60
2018-04-11T03:30:17.590Z,5.70
2018-04-11T03:32:45.719Z,5.70
2018-04-11T03:35:13.873Z,5.70
2018-04-11T03:37:41.995Z,5.70
2018-04-11T03:40:10.143Z,5.70
2018-04-11T03:42:38.278Z,5.70
2018-04-11T03:45:06.433Z,5.70
2018-04-11T03:47:34.564Z,5.70
2018-04-11T03:50:03.535Z,5.70
2018-04-11T03:52:31.660Z,5.70
2018-04-11T03:54:59.821Z,5.70
2018-04-11T03:57:27.949Z,5.70
2018-04-11T03:59:56.112Z,5.70
2018-04-11T04:02:24.251Z,5.70
2018-04-11T04:04:52.431Z,5.70
2018-04-11T04:07:20.572Z,5.70
2018-04-11T04:09:48.726Z,5.70
2018-04-11T04:12:16.851Z,5.70
2018-04-11T04:14:56.804Z,5.70
2018-04-11T04:17:36.568Z,5.70
2018-04-11T04:20:28.267Z,5.70
2018-04-11T04:22:56.396Z,5.70
2018-04-11T04:25:24.551Z,5.70
2018-04-11T04:27:52.683Z,5.70
2018-04-11T04:30:20.842Z,5.70
2018-04-11T04:32:48.976Z,5.70
2018-04-11T04:35:17.151Z,5.70
2018-04-11T04:37:45.283Z,5.70
2018-04-11T04:40:13.448Z,5.70
2018-04-11T04:42:41.577Z,5.70
2018-04-11T04:45:09.755Z,5.70
2018-04-11T04:47:37.896Z,5.70
2018-04-11T04:50:06.081Z,5.70
2018-04-11T04:52:34.223Z,5.70
2018-04-11T04:55:02.390Z,5.70
2018-04-11T04:57:30.557Z,5.70
2018-04-11T04:59:59.452Z,5.70
2018-04-11T05:02:27.627Z,5.70
2018-04-11T05:04:55.758Z,5.70
2018-04-11T05:07:23.921Z,5.70
2018-04-11T05:09:52.055Z,5.70
2018-04-11T05:12:20.219Z,5.70
2018-04-11T05:14:48.357Z,5.70
2018-04-11T05:17:16.524Z,5.70
2018-04-11T05:19:44.676Z,5.70
2018-04-11T05:22:12.809Z,5.70
2018-04-11T05:24:40.965Z,5.70
2018-04-11T05:27:09.092Z,5.80
2018-04-11T05:29:37.231Z,5.80
2018-04-11T05:32:05.386Z,5.80
2018-04-11T05:34:33.522Z,5.80
2018-04-11T05:37:01.680Z,5.80
2018-04-11T05:39:30.576Z,5.90
2018-04-11T05:41:58.739Z,5.80
2018-04-11T05:44:27.646Z,5.90
2018-04-11T05:46:55.808Z,5.90
2018-04-11T05:49:23.949Z,5.90
2018-04-11T05:51:52.108Z,5.90
2018-04-11T05:54:20.260Z,5.90
2018-04-11T05:56:48.418Z,5.90
2018-04-11T05:59:16.552Z,6.00
2018-04-11T06:01:44.708Z,6.00
2018-04-11T06:04:12.846Z,6.00
2018-04-11T06:06:41.004Z,6.00
2018-04-11T06:09:09.335Z,6.00
2018-04-11T06:11:37.492Z,6.00
2018-04-11T06:14:05.656Z,6.00
2018-04-11T06:16:33.816Z,6.00
2018-04-11T06:19:02.568Z,6.10
2018-04-11T06:21:31.491Z,6.10
2018-04-11T06:23:59.620Z,6.10
2018-04-11T06:26:28.544Z,6.20
2018-04-11T06:28:56.688Z,6.20
2018-04-11T06:31:25.616Z,6.20
2018-04-11T06:33:53.758Z,6.20
2018-04-11T06:36:22.694Z,6.30
2018-04-11T06:38:50.833Z,6.30
2018-04-11T06:41:18.987Z,6.30
2018-04-11T06:43:47.129Z,6.30
2018-04-11T06:46:15.710Z,6.30
2018-04-11T06:48:43.919Z,6.30
2018-04-11T06:51:12.166Z,6.40
2018-04-11T06:53:40.439Z,6.40
2018-04-11T06:56:08.658Z,6.40
2018-04-11T06:58:37.283Z,6.40
2018-04-11T07:01:05.538Z,6.50
2018-04-11T07:03:33.819Z,6.50
2018-04-11T07:06:01.988Z,6.60
2018-04-11T07:08:30.887Z,6.60
2018-04-11T07:10:59.493Z,6.60
2018-04-11T07:13:27.619Z,6.60
2018-04-11T07:15:55.923Z,6.60
2018-04-11T07:18:24.164Z,6.60
2018-04-11T07:20:52.320Z,6.70
2018-04-11T07:23:21.264Z,6.60
2018-04-11T07:25:49.852Z,6.60
2018-04-11T07:28:18.248Z,6.60
2018-04-11T07:30:47.097Z,6.60
2018-04-11T07:33:15.677Z,6.60
2018-04-11T07:35:44.032Z,6.60
2018-04-11T07:38:12.364Z,6.60
2018-04-11T07:40:40.901Z,6.60
2018-04-11T07:43:09.249Z,6.60
2018-04-11T07:45:38.357Z,6.60
2018-04-11T07:48:06.954Z,6.60
2018-04-11T07:50:36.305Z,6.60
2018-04-11T07:53:05.049Z,6.60
2018-04-11T07:55:33.631Z,6.60
2018-04-11T07:58:02.115Z,6.70
2018-04-11T08:00:30.659Z,6.70
2018-04-11T08:02:59.888Z,6.70
2018-04-11T08:05:28.081Z,6.70
2018-04-11T08:07:57.672Z,6.70
2018-04-11T08:10:25.896Z,6.70
2018-04-11T08:12:54.079Z,6.70
2018-04-11T08:15:22.250Z,6.70
2018-04-11T08:17:50.424Z,6.70
2018-04-11T08:20:20.128Z,6.70
2018-04-11T08:22:48.308Z,6.70
2018-04-11T08:25:16.440Z,6.70
2018-04-11T08:27:44.864Z,6.70
2018-04-11T08:30:13.012Z,6.80
2018-04-11T08:32:41.200Z,6.80
2018-04-11T08:35:09.328Z,6.80
2018-04-11T08:37:37.510Z,6.80
2018-04-11T08:40:05.672Z,6.80
2018-04-11T08:42:34.045Z,6.80
2018-04-11T08:45:02.943Z,6.80
2018-04-11T08:47:31.108Z,6.80
2018-04-11T08:50:00.012Z,6.90
2018-04-11T08:52:28.241Z,6.90
2018-04-11T08:54:56.404Z,6.90
2018-04-11T08:57:24.634Z,6.90
2018-04-11T08:59:52.781Z,7.00
2018-04-11T09:02:21.074Z,7.00
2018-04-11T09:04:49.223Z,6.90
2018-04-11T09:07:17.396Z,6.90
2018-04-11T09:09:45.729Z,6.90
2018-04-11T09:12:13.904Z,7.00
2018-04-11T09:14:42.074Z,6.90
2018-04-11T09:17:10.384Z,6.90
2018-04-11T09:19:39.401Z,7.00
2018-04-11T09:22:07.540Z,7.00
2018-04-11T09:24:35.692Z,7.10
2018-04-11T09:27:03.826Z,7.20
2018-04-11T09:29:32.213Z,7.30
2018-04-11T09:32:00.380Z,7.30
2018-04-11T09:34:28.519Z,7.30
2018-04-11T09:36:56.677Z,7.30
2018-04-11T09:39:24.811Z,7.30
2018-04-11T09:41:53.288Z,7.30
2018-04-11T09:44:21.440Z,7.40
2018-04-11T09:46:49.577Z,7.40
2018-04-11T09:49:17.735Z,7.40
2018-04-11T09:51:45.901Z,7.40
2018-04-11T09:54:14.097Z,7.40
2018-04-11T09:56:42.252Z,7.50
2018-04-11T09:59:10.435Z,7.50
2018-04-11T10:01:44.334Z,7.50
2018-04-11T10:04:12.495Z,7.50
2018-04-11T10:06:40.632Z,7.50
2018-04-11T10:09:08.792Z,7.50
2018-04-11T10:11:36.924Z,7.50
2018-04-11T10:14:05.088Z,7.50
2018-04-11T10:16:33.271Z,7.50
2018-04-11T10:19:01.441Z,7.50
2018-04-11T10:21:29.795Z,7.50
2018-04-11T10:23:58.165Z,7.60
2018-04-11T10:26:27.164Z,7.50
2018-04-11T10:28:56.089Z,7.50
2018-04-11T10:31:24.280Z,7.50
2018-04-11T10:33:52.444Z,7.60
2018-04-11T10:36:21.376Z,7.60
2018-04-11T10:38:49.978Z,7.60
2018-04-11T10:41:18.886Z,7.50
2018-04-11T10:43:47.087Z,7.50
2018-04-11T10:46:15.303Z,7.50
2018-04-11T10:48:43.469Z,7.50
2018-04-11T10:51:11.699Z,7.50
2018-04-11T10:53:40.229Z,7.50
2018-04-11T10:56:09.395Z,7.50
2018-04-11T10:58:37.565Z,7.50
2018-04-11T11:01:05.723Z,7.40
2018-04-11T11:03:33.903Z,7.40
2018-04-11T11:06:02.283Z,7.30
2018-04-11T11:08:30.451Z,7.30
2018-04-11T11:10:58.742Z,7.30
2018-04-11T11:13:26.896Z,7.30
2018-04-11T11:15:55.272Z,7.30
2018-04-11T11:18:23.429Z,7.30
2018-04-11T11:20:58.252Z,7.30
2018-04-11T11:23:26.424Z,7.30
2018-04-11T11:25:54.573Z,7.30
2018-04-11T11:28:22.732Z,7.30
2018-04-11T11:30:50.860Z,7.30
2018-04-11T11:33:19.020Z,7.30
2018-04-11T11:35:47.157Z,7.40
2018-04-11T11:38:15.316Z,7.40
2018-04-11T11:40:43.452Z,7.40
2018-04-11T11:43:11.629Z,7.50
2018-04-11T11:45:39.780Z,7.50
2018-04-11T11:48:07.939Z,7.60
2018-04-11T11:50:36.859Z,7.70
2018-04-11T11:53:05.016Z,7.70
2018-04-11T11:55:33.148Z,7.70
2018-04-11T11:58:01.312Z,7.70
2018-04-11T12:00:29.485Z,7.70
2018-04-11T12:02:57.623Z,7.80
2018-04-11T12:05:25.784Z,7.90
2018-04-11T12:07:53.921Z,7.90
2018-04-11T12:10:22.084Z,7.90
2018-04-11T12:12:50.225Z,8.00
2018-04-11T12:15:18.472Z,8.00
2018-04-11T12:17:46.613Z,8.00
2018-04-11T12:20:14.779Z,8.00
2018-04-11T12:22:42.908Z,8.00
2018-04-11T12:25:11.172Z,8.00
2018-04-11T12:27:39.308Z,8.10
2018-04-11T12:30:07.472Z,8.10
2018-04-11T12:32:35.702Z,8.10
2018-04-11T12:35:03.869Z,8.10
2018-04-11T12:37:31.999Z,8.10
2018-04-11T12:40:00.389Z,8.10
2018-04-11T12:42:28.532Z,8.20
2018-04-11T12:44:56.704Z,8.10
2018-04-11T12:47:24.835Z,8.00
2018-04-11T12:49:53.005Z,8.10
2018-04-11T12:52:21.141Z,8.10
2018-04-11T12:54:49.301Z,8.10
2018-04-11T12:57:17.441Z,8.10
2018-04-11T12:59:45.600Z,8.00
2018-04-11T13:02:14.078Z,8.00
2018-04-11T13:04:42.449Z,8.00
2018-04-11T13:07:11.363Z,8.00
2018-04-11T13:09:39.524Z,8.00
2018-04-11T13:12:07.656Z,7.90
2018-04-11T13:14:35.817Z,7.80
2018-04-11T13:17:03.952Z,7.70
2018-04-11T13:19:32.243Z,7.70
2018-04-11T13:22:00.382Z,7.70
2018-04-11T13:24:28.548Z,7.70
2018-04-11T13:26:57.467Z,7.70
2018-04-11T13:29:25.628Z,7.60
2018-04-11T13:31:53.779Z,7.70
2018-04-11T13:34:21.969Z,7.80
2018-04-11T13:36:50.105Z,7.80
2018-04-11T13:39:18.273Z,7.80
2018-04-11T13:41:46.412Z,7.80
2018-04-11T13:44:14.587Z,7.70
2018-04-11T13:46:42.754Z,7.70
2018-04-11T13:49:10.996Z,7.70
2018-04-11T13:51:39.135Z,7.70
2018-04-11T13:54:07.377Z,7.70
2018-04-11T13:56:35.508Z,7.60
2018-04-11T13:59:03.668Z,7.60
2018-04-11T14:01:31.844Z,7.60
2018-04-11T14:04:00.016Z,7.60
2018-04-11T14:06:28.220Z,7.70
2018-04-11T14:08:57.113Z,7.60
2018-04-11T14:11:25.315Z,7.60
2018-04-11T14:13:53.448Z,7.60
2018-04-11T14:16:21.742Z,7.50
2018-04-11T14:18:50.640Z,7.40
2018-04-11T14:21:18.798Z,7.40
2018-04-11T14:23:47.797Z,7.40
2018-04-11T14:26:16.721Z,7.40
2018-04-11T14:28:44.873Z,7.40
2018-04-11T14:31:13.046Z,7.50
2018-04-11T14:33:41.246Z,7.50
2018-04-11T14:36:09.409Z,7.50
2018-04-11T14:38:37.543Z,7.40
2018-04-11T14:41:05.709Z,7.40
2018-04-11T14:43:33.877Z,7.40
2018-04-11T14:46:02.037Z,7.40
2018-04-11T14:48:30.204Z,7.40
2018-04-11T14:50:58.364Z,7.40
2018-04-11T14:53:26.495Z,7.20
2018-04-11T14:55:54.873Z,7.20
2018-04-11T14:58:23.085Z,7.00
2018-04-11T15:00:51.418Z,6.90
2018-04-11T15:03:19.681Z,6.90
2018-04-11T15:05:48.711Z,6.80
2018-04-11T15:08:17.074Z,6.80
2018-04-11T15:10:45.254Z,6.80
2018-04-11T15:13:13.431Z,6.80
2018-04-11T15:15:41.775Z,6.80
2018-04-11T15:18:10.008Z,6.70
2018-04-11T15:20:38.172Z,6.70
2018-04-11T15:23:06.419Z,6.70
2018-04-11T15:25:35.569Z,6.70
2018-04-11T15:28:04.097Z,6.60
2018-04-11T15:30:33.038Z,6.60
2018-04-11T15:33:01.179Z,6.60
2018-04-11T15:35:29.407Z,6.50
2018-04-11T15:37:57.550Z,6.50
2018-04-11T15:40:25.840Z,6.50
2018-04-11T15:42:53.975Z,6.50
2018-04-11T15:45:23.974Z,6.50
2018-04-11T15:47:52.967Z,6.60
2018-04-11T15:50:21.153Z,6.60
2018-04-11T15:52:49.321Z,6.60
2018-04-11T15:55:17.510Z,6.60
2018-04-11T15:57:45.722Z,6.60
2018-04-11T16:00:14.009Z,6.60
2018-04-11T16:02:42.321Z,6.50
2018-04-11T16:05:10.551Z,6.50
2018-04-11T16:07:38.771Z,6.50
2018-04-11T16:10:06.933Z,6.50
2018-04-11T16:12:35.116Z,6.40
2018-04-11T16:15:03.527Z,6.40
2018-04-11T16:17:32.068Z,6.40
2018-04-11T16:20:00.218Z,6.40
2018-04-11T16:22:30.250Z,6.40
2018-04-11T16:24:58.464Z,6.50
2018-04-11T16:27:26.651Z,6.50
2018-04-11T16:29:54.825Z,6.50
2018-04-11T16:32:22.994Z,6.50
2018-04-11T16:34:51.160Z,6.50
2018-04-11T16:37:19.355Z,6.50
2018-04-11T16:39:47.496Z,6.50
2018-04-11T16:42:15.846Z,6.60
2018-04-11T16:44:43.972Z,6.60
2018-04-11T16:47:12.138Z,6.60
2018-04-11T16:49:40.472Z,6.60
2018-04-11T16:52:08.702Z,6.60
2018-04-11T16:54:36.885Z,6.60
2018-04-11T16:57:05.072Z,6.60
2018-04-11T16:59:33.503Z,6.60
2018-04-11T17:02:01.660Z,6.60
2018-04-11T17:04:29.932Z,6.60
2018-04-11T17:06:58.885Z,6.50
2018-04-11T17:09:27.029Z,6.50
2018-04-11T17:11:55.187Z,6.50
2018-04-11T17:14:23.315Z,6.50
2018-04-11T17:16:51.483Z,6.50
2018-04-11T17:19:19.627Z,6.40
2018-04-11T17:21:59.463Z,6.40
2018-04-11T17:24:40.332Z,6.30
2018-04-11T17:27:20.268Z,6.30
2018-04-11T17:30:00.202Z,6.30
2018-04-11T17:32:28.423Z,6.20
2018-04-11T17:34:56.623Z,6.20
2018-04-11T17:37:24.788Z,6.20
2018-04-11T17:39:52.923Z,6.20
2018-04-11T17:42:21.122Z,6.10
2018-04-11T17:44:49.264Z,6.10
2018-04-11T17:47:17.478Z,6.10
2018-04-11T17:49:45.695Z,6.10
2018-04-11T17:52:13.949Z,6.10
2018-04-11T17:54:42.145Z,6.00
2018-04-11T17:57:10.304Z,6.00
2018-04-11T17:59:38.429Z,6.00
2018-04-11T18:02:06.587Z,6.00
2018-04-11T18:04:34.744Z,6.00
2018-04-11T18:07:02.928Z,5.90
2018-04-11T18:09:31.111Z,5.90
2018-04-11T18:11:59.266Z,5.80
2018-04-11T18:14:27.416Z,5.80
2018-04-11T18:16:55.684Z,5.70
2018-04-11T18:19:23.796Z,5.70
2018-04-11T18:21:52.153Z,5.60
2018-04-11T18:24:20.305Z,5.60
2018-04-11T18:26:48.560Z,5.50
2018-04-11T18:29:16.800Z,5.50
2018-04-11T18:31:44.924Z,5.50
2018-04-11T18:34:13.089Z,5.50
2018-04-11T18:36:41.341Z,5.50
2018-04-11T18:39:09.574Z,5.50
2018-04-11T18:41:38.487Z,5.50
2018-04-11T18:44:06.707Z,5.40
2018-04-11T18:46:34.850Z,5.50
2018-04-11T18:49:03.105Z,5.40
2018-04-11T18:51:31.395Z,5.40
2018-04-11T18:53:59.576Z,5.40
2018-04-11T18:56:27.725Z,5.30
2018-04-11T18:58:55.983Z,5.30
2018-04-11T19:01:24.239Z,5.30
2018-04-11T19:03:53.280Z,5.20
2018-04-11T19:06:21.541Z,5.20
2018-04-11T19:08:49.756Z,5.10
2018-04-11T19:11:17.941Z,5.10
2018-04-11T19:13:46.227Z,5.10
2018-04-11T19:16:14.428Z,5.00
2018-04-11T19:18:43.078Z,5.00
2018-04-11T19:21:11.347Z,5.00
2018-04-11T19:23:39.592Z,5.00
2018-04-11T19:26:07.768Z,4.90
2018-04-11T19:28:36.018Z,4.90
2018-04-11T19:31:04.351Z,4.90
2018-04-11T19:33:32.595Z,4.90
2018-04-11T19:36:00.858Z,4.90
2018-04-11T19:38:29.126Z,4.90
2018-04-11T19:40:57.305Z,4.90
2018-04-11T19:43:25.575Z,4.90
2018-04-11T19:45:54.087Z,4.90
2018-04-11T19:48:22.482Z,4.80
2018-04-11T19:50:50.715Z,4.90
2018-04-11T19:53:18.896Z,4.80
2018-04-11T19:55:47.145Z,4.80
2018-04-11T19:58:15.376Z,4.90
2018-04-11T20:00:43.577Z,4.80
2018-04-11T20:03:11.746Z,4.90
2018-04-11T20:05:39.885Z,4.90
2018-04-11T20:08:08.125Z,4.90
2018-04-11T20:10:36.466Z,4.90
2018-04-11T20:13:13.519Z,4.90
2018-04-11T20:15:41.830Z,4.90
2018-04-11T20:18:15.478Z,4.80
2018-04-11T20:20:43.727Z,4.90
2018-04-11T20:23:12.384Z,4.80
2018-04-11T20:25:41.424Z,4.80
2018-04-11T20:28:11.013Z,4.80
2018-04-11T20:30:39.979Z,4.80
2018-04-11T20:33:08.198Z,4.80
2018-04-11T20:35:36.368Z,4.80
2018-04-11T20:38:04.525Z,4.80
2018-04-11T20:43:11.594Z,4.80
2018-04-11T20:45:39.742Z,4.80
2018-04-11T20:48:07.959Z,4.80
2018-04-11T20:50:36.915Z,4.80
2018-04-11T20:53:05.136Z,4.70
2018-04-11T20:55:33.383Z,4.80
2018-04-11T20:58:01.535Z,4.80
2018-04-11T21:00:29.783Z,4.70
2018-04-11T21:02:57.961Z,4.70
2018-04-11T21:05:26.121Z,4.70
2018-04-11T21:07:54.283Z,4.70
2018-04-11T21:10:23.201Z,4.70
2018-04-11T21:12:51.332Z,4.70
2018-04-11T21:15:20.280Z,4.80
2018-04-11T21:17:48.438Z,4.80
2018-04-11T21:20:16.648Z,4.80
2018-04-11T21:22:44.785Z,4.80
2018-04-11T21:25:12.975Z,4.80
2018-04-11T21:27:41.249Z,4.80
2018-04-11T21:30:09.411Z,4.80
2018-04-11T21:32:37.556Z,4.80
2018-04-11T21:35:05.707Z,4.80
2018-04-11T21:37:33.846Z,4.80
2018-04-11T21:40:02.002Z,4.80
2018-04-11T21:42:30.142Z,4.80
2018-04-11T21:44:58.368Z,4.80
2018-04-11T21:47:26.502Z,4.80
2018-04-11T21:49:54.651Z,4.80
2018-04-11T21:52:22.783Z,4.80
2018-04-11T21:54:50.941Z,4.70
2018-04-11T21:57:19.113Z,4.70
2018-04-11T21:59:47.281Z,4.70
2018-04-11T22:02:15.407Z,4.70
2018-04-11T22:04:43.606Z,4.70
2018-04-11T22:07:12.494Z,4.70
2018-04-11T22:09:40.656Z,4.60
2018-04-11T22:12:09.582Z,4.60
2018-04-11T22:14:37.739Z,4.60
2018-04-11T22:17:05.896Z,4.60
2018-04-11T22:19:34.057Z,4.60
2018-04-11T22:22:02.225Z,4.60
2018-04-11T22:24:30.389Z,4.60
2018-04-11T22:26:58.525Z,4.60
2018-04-11T22:29:26.680Z,4.60
2018-04-11T22:31:55.595Z,4.60
2018-04-11T22:34:23.767Z,4.60
2018-04-11T22:36:51.897Z,4.60
2018-04-11T22:39:20.818Z,4.60
2018-04-11T22:41:48.940Z,4.60
2018-04-11T22:44:17.111Z,4.60
2018-04-11T22:46:45.242Z,4.60
2018-04-11T22:49:13.364Z,4.60
2018-04-11T22:51:41.540Z,4.60
2018-04-11T22:54:09.676Z,4.60
2018-04-11T22:56:37.828Z,4.60
2018-04-11T22:59:05.960Z,4.60
2018-04-11T23:01:34.161Z,4.60
2018-04-11T23:04:02.292Z,4.60
2018-04-11T23:06:30.441Z,4.60
2018-04-11T23:08:58.577Z,4.60
2018-04-11T23:11:26.749Z,4.60
2018-04-11T23:13:55.644Z,4.60
2018-04-11T23:16:23.798Z,4.60
2018-04-11T23:18:52.701Z,4.60
2018-04-11T23:21:20.864Z,4.60
2018-04-11T23:23:49.872Z,4.60
2018-04-11T23:26:18.832Z,4.60
2018-04-11T23:28:46.985Z,4.60
2018-04-11T23:31:15.155Z,4.60
2018-04-11T23:33:43.278Z,4.60
2018-04-11T23:36:11.488Z,4.60
2018-04-11T23:38:39.621Z,4.60
2018-04-11T23:41:07.772Z,4.60
2018-04-11T23:43:35.911Z,4.60
2018-04-11T23:46:04.063Z,4.60
2018-04-11T23:48:32.201Z,4.50
2018-04-11T23:51:00.360Z,4.50
2018-04-11T23:53:28.488Z,4.50
2018-04-11T23:55:56.640Z,4.50
2018-04-11T23:58:25.533Z,4.50
